sensor_id;sensor_type;location;lat;lon;timestamp;P1;P2;P0
37290;PMS5003;23175;-33.706;151.094;2023-08-12T00:02:21;6;5;
37290;PMS5003;23175;-33.706;151.094;2023-08-12T00:04:51;5;5;
37290;PMS5003;23175;-33.706;151.094;2023-08-12T00:07:21;11;10;
37290;PMS5003;23175;-33.706;151.094;2023-08-12T00:09:51;9;6;
37290;PMS5003;23175;-33.706;151.094;2023-08-12T00:12:21;6;6;
37290;PMS5003;23175;-33.706;151.094;2023-08-12T00:14:51;2;2;
37290;PMS5003;23175;-33.706;151.094;2023-08-12T00:17:21;5;5;
37290;PMS5003;23175;-33.706;151.094;2023-08-12T00:19:50;7;7;
37290;PMS5003;23175;-33.706;151.094;2023-08-12T00:22:21;8;6;
37290;PMS5003;23175;-33.706;151.094;2023-08-12T00:24:51;4;3;
37290;PMS5003;23175;-33.706;151.094;2023-08-12T00:27:21;5;5;
37290;PMS5003;23175;-33.706;151.094;2023-08-12T00:29:51;6;6;
37290;PMS5003;23175;-33.706;151.094;2023-08-12T00:32:21;6;6;
37290;PMS5003;23175;-33.706;151.094;2023-08-12T00:34:51;3;3;
37290;PMS5003;23175;-33.706;151.094;2023-08-12T00:37:20;4;4;
37290;PMS5003;23175;-33.706;151.094;2023-08-12T00:39:51;7;5;
37290;PMS5003;23175;-33.706;151.094;2023-08-12T00:42:21;3;3;
37290;PMS5003;23175;-33.706;151.094;2023-08-12T00:44:51;5;2;
37290;PMS5003;23175;-33.706;151.094;2023-08-12T00:47:21;4;4;
37290;PMS5003;23175;-33.706;151.094;2023-08-12T00:49:51;7;6;
37290;PMS5003;23175;-33.706;151.094;2023-08-12T00:52:22;3;3;
37290;PMS5003;23175;-33.706;151.094;2023-08-12T00:54:53;2;2;
37290;PMS5003;23175;-33.706;151.094;2023-08-12T00:57:28;2;2;
37290;PMS5003;23175;-33.706;151.094;2023-08-12T01:00:03;4;2;
37290;PMS5003;23175;-33.706;151.094;2023-08-12T01:02:34;6;4;
37290;PMS5003;23175;-33.706;151.094;2023-08-12T01:05:04;3;3;
37290;PMS5003;23175;-33.706;151.094;2023-08-12T01:07:39;3;3;
37290;PMS5003;23175;-33.706;151.094;2023-08-12T01:10:10;6;5;
37290;PMS5003;23175;-33.706;151.094;2023-08-12T01:12:41;3;3;
37290;PMS5003;23175;-33.706;151.094;2023-08-12T01:15:23;3;3;
37290;PMS5003;23175;-33.706;151.094;2023-08-12T01:17:54;4;3;
37290;PMS5003;23175;-33.706;151.094;2023-08-12T01:20:25;11;11;
37290;PMS5003;23175;-33.706;151.094;2023-08-12T01:22:57;5;2;
37290;PMS5003;23175;-33.706;151.094;2023-08-12T01:25:29;5;5;
37290;PMS5003;23175;-33.706;151.094;2023-08-12T01:28:00;5;5;
37290;PMS5003;23175;-33.706;151.094;2023-08-12T01:30:36;5;5;
37290;PMS5003;23175;-33.706;151.094;2023-08-12T01:33:14;18;17;
37290;PMS5003;23175;-33.706;151.094;2023-08-12T01:35:53;12;12;
37290;PMS5003;23175;-33.706;151.094;2023-08-12T01:38:29;12;11;
37290;PMS5003;23175;-33.706;151.094;2023-08-12T01:41:02;12;10;
37290;PMS5003;23175;-33.706;151.094;2023-08-12T01:43:33;10;10;
37290;PMS5003;23175;-33.706;151.094;2023-08-12T01:46:03;8;6;
37290;PMS5003;23175;-33.706;151.094;2023-08-12T01:48:33;69;63;
37290;PMS5003;23175;-33.706;151.094;2023-08-12T01:51:04;78;74;
37290;PMS5003;23175;-33.706;151.094;2023-08-12T01:53:34;43;39;
37290;PMS5003;23175;-33.706;151.094;2023-08-12T01:56:04;32;30;
37290;PMS5003;23175;-33.706;151.094;2023-08-12T01:58:34;28;27;
37290;PMS5003;23175;-33.706;151.094;2023-08-12T02:01:04;7;7;
37290;PMS5003;23175;-33.706;151.094;2023-08-12T02:03:33;10;6;
37290;PMS5003;23175;-33.706;151.094;2023-08-12T02:06:03;11;9;
37290;PMS5003;23175;-33.706;151.094;2023-08-12T02:08:33;29;29;
37290;PMS5003;23175;-33.706;151.094;2023-08-12T02:11:03;72;68;
37290;PMS5003;23175;-33.706;151.094;2023-08-12T02:13:33;88;84;
37290;PMS5003;23175;-33.706;151.094;2023-08-12T02:16:03;95;90;
37290;PMS5003;23175;-33.706;151.094;2023-08-12T02:18:33;95;91;
37290;PMS5003;23175;-33.706;151.094;2023-08-12T02:21:03;51;49;
37290;PMS5003;23175;-33.706;151.094;2023-08-12T02:23:33;32;31;
37290;PMS5003;23175;-33.706;151.094;2023-08-12T02:26:03;33;30;
37290;PMS5003;23175;-33.706;151.094;2023-08-12T02:28:33;32;31;
37290;PMS5003;23175;-33.706;151.094;2023-08-12T02:31:08;28;28;
37290;PMS5003;23175;-33.706;151.094;2023-08-12T02:33:38;59;53;
37290;PMS5003;23175;-33.706;151.094;2023-08-12T02:36:07;65;60;
37290;PMS5003;23175;-33.706;151.094;2023-08-12T02:38:38;73;68;
37290;PMS5003;23175;-33.706;151.094;2023-08-12T02:41:08;31;29;
37290;PMS5003;23175;-33.706;151.094;2023-08-12T02:43:39;20;18;
37290;PMS5003;23175;-33.706;151.094;2023-08-12T02:46:14;5;5;
37290;PMS5003;23175;-33.706;151.094;2023-08-12T02:48:45;3;2;
37290;PMS5003;23175;-33.706;151.094;2023-08-12T02:51:15;7;7;
37290;PMS5003;23175;-33.706;151.094;2023-08-12T02:53:45;13;13;
37290;PMS5003;23175;-33.706;151.094;2023-08-12T02:56:15;88;82;
37290;PMS5003;23175;-33.706;151.094;2023-08-12T02:58:44;34;33;
37290;PMS5003;23175;-33.706;151.094;2023-08-12T03:01:15;13;13;
37290;PMS5003;23175;-33.706;151.094;2023-08-12T03:03:45;14;14;
37290;PMS5003;23175;-33.706;151.094;2023-08-12T03:06:16;11;10;
37290;PMS5003;23175;-33.706;151.094;2023-08-12T03:08:46;259;243;
37290;PMS5003;23175;-33.706;151.094;2023-08-12T03:11:21;235;227;
37290;PMS5003;23175;-33.706;151.094;2023-08-12T03:13:51;57;54;
37290;PMS5003;23175;-33.706;151.094;2023-08-12T03:16:21;67;63;
37290;PMS5003;23175;-33.706;151.094;2023-08-12T03:18:51;135;132;
37290;PMS5003;23175;-33.706;151.094;2023-08-12T03:21:21;130;123;
37290;PMS5003;23175;-33.706;151.094;2023-08-12T03:23:51;96;95;
37290;PMS5003;23175;-33.706;151.094;2023-08-12T03:26:21;111;107;
37290;PMS5003;23175;-33.706;151.094;2023-08-12T03:28:51;69;65;
37290;PMS5003;23175;-33.706;151.094;2023-08-12T03:31:21;55;55;
37290;PMS5003;23175;-33.706;151.094;2023-08-12T03:33:56;63;58;
37290;PMS5003;23175;-33.706;151.094;2023-08-12T03:36:31;27;25;
37290;PMS5003;23175;-33.706;151.094;2023-08-12T03:39:00;10;8;
37290;PMS5003;23175;-33.706;151.094;2023-08-12T03:41:35;19;18;
37290;PMS5003;23175;-33.706;151.094;2023-08-12T03:44:06;130;120;
37290;PMS5003;23175;-33.706;151.094;2023-08-12T03:46:36;80;79;
37290;PMS5003;23175;-33.706;151.094;2023-08-12T03:49:06;40;40;
37290;PMS5003;23175;-33.706;151.094;2023-08-12T03:51:36;21;19;
37290;PMS5003;23175;-33.706;151.094;2023-08-12T03:54:06;13;13;
37290;PMS5003;23175;-33.706;151.094;2023-08-12T03:56:36;13;11;
37290;PMS5003;23175;-33.706;151.094;2023-08-12T03:59:06;8;7;
37290;PMS5003;23175;-33.706;151.094;2023-08-12T04:01:36;6;6;
37290;PMS5003;23175;-33.706;151.094;2023-08-12T04:04:09;4;4;
37290;PMS5003;23175;-33.706;151.094;2023-08-12T04:06:40;20;20;
37290;PMS5003;23175;-33.706;151.094;2023-08-12T04:09:10;85;79;
37290;PMS5003;23175;-33.706;151.094;2023-08-12T04:11:40;104;101;
37290;PMS5003;23175;-33.706;151.094;2023-08-12T04:14:10;128;122;
37290;PMS5003;23175;-33.706;151.094;2023-08-12T04:16:40;118;109;
37290;PMS5003;23175;-33.706;151.094;2023-08-12T04:19:10;115;108;
37290;PMS5003;23175;-33.706;151.094;2023-08-12T04:21:40;140;137;
37290;PMS5003;23175;-33.706;151.094;2023-08-12T04:24:10;79;74;
37290;PMS5003;23175;-33.706;151.094;2023-08-12T04:26:40;55;50;
37290;PMS5003;23175;-33.706;151.094;2023-08-12T04:29:10;44;40;
37290;PMS5003;23175;-33.706;151.094;2023-08-12T04:31:40;34;32;
37290;PMS5003;23175;-33.706;151.094;2023-08-12T04:34:11;20;18;
37290;PMS5003;23175;-33.706;151.094;2023-08-12T04:36:40;44;44;
37290;PMS5003;23175;-33.706;151.094;2023-08-12T04:39:11;42;42;
37290;PMS5003;23175;-33.706;151.094;2023-08-12T04:41:41;82;79;
37290;PMS5003;23175;-33.706;151.094;2023-08-12T04:44:11;27;26;
37290;PMS5003;23175;-33.706;151.094;2023-08-12T04:46:41;25;25;
37290;PMS5003;23175;-33.706;151.094;2023-08-12T04:49:11;16;15;
37290;PMS5003;23175;-33.706;151.094;2023-08-12T04:51:41;41;41;
37290;PMS5003;23175;-33.706;151.094;2023-08-12T04:54:10;53;47;
37290;PMS5003;23175;-33.706;151.094;2023-08-12T04:56:41;64;62;
37290;PMS5003;23175;-33.706;151.094;2023-08-12T04:59:11;67;64;
37290;PMS5003;23175;-33.706;151.094;2023-08-12T05:01:41;122;116;
37290;PMS5003;23175;-33.706;151.094;2023-08-12T05:04:12;148;137;
37290;PMS5003;23175;-33.706;151.094;2023-08-12T05:06:43;142;138;
37290;PMS5003;23175;-33.706;151.094;2023-08-12T05:09:14;198;192;
37290;PMS5003;23175;-33.706;151.094;2023-08-12T05:11:45;272;257;
37290;PMS5003;23175;-33.706;151.094;2023-08-12T05:14:14;202;191;
37290;PMS5003;23175;-33.706;151.094;2023-08-12T05:16:44;235;226;
37290;PMS5003;23175;-33.706;151.094;2023-08-12T05:19:14;276;267;
37290;PMS5003;23175;-33.706;151.094;2023-08-12T05:21:44;252;239;
37290;PMS5003;23175;-33.706;151.094;2023-08-12T05:24:14;268;258;
37290;PMS5003;23175;-33.706;151.094;2023-08-12T05:26:43;307;296;
37290;PMS5003;23175;-33.706;151.094;2023-08-12T05:29:14;92;90;
37290;PMS5003;23175;-33.706;151.094;2023-08-12T05:31:44;32;30;
37290;PMS5003;23175;-33.706;151.094;2023-08-12T05:34:14;16;16;
37290;PMS5003;23175;-33.706;151.094;2023-08-12T05:36:44;8;8;
37290;PMS5003;23175;-33.706;151.094;2023-08-12T05:39:14;7;5;
37290;PMS5003;23175;-33.706;151.094;2023-08-12T05:41:43;9;7;
37290;PMS5003;23175;-33.706;151.094;2023-08-12T05:44:13;6;6;
37290;PMS5003;23175;-33.706;151.094;2023-08-12T05:46:43;4;4;
37290;PMS5003;23175;-33.706;151.094;2023-08-12T05:49:13;3;3;
37290;PMS5003;23175;-33.706;151.094;2023-08-12T05:51:43;6;6;
37290;PMS5003;23175;-33.706;151.094;2023-08-12T05:54:12;7;4;
37290;PMS5003;23175;-33.706;151.094;2023-08-12T05:56:42;5;5;
37290;PMS5003;23175;-33.706;151.094;2023-08-12T05:59:12;4;3;
37290;PMS5003;23175;-33.706;151.094;2023-08-12T06:01:41;4;4;
37290;PMS5003;23175;-33.706;151.094;2023-08-12T06:04:11;5;3;
37290;PMS5003;23175;-33.706;151.094;2023-08-12T06:06:42;3;3;
37290;PMS5003;23175;-33.706;151.094;2023-08-12T06:09:12;4;4;
37290;PMS5003;23175;-33.706;151.094;2023-08-12T06:11:42;7;5;
37290;PMS5003;23175;-33.706;151.094;2023-08-12T06:14:12;3;3;
37290;PMS5003;23175;-33.706;151.094;2023-08-12T06:16:42;4;4;
37290;PMS5003;23175;-33.706;151.094;2023-08-12T06:19:11;3;3;
37290;PMS5003;23175;-33.706;151.094;2023-08-12T06:21:46;4;4;
37290;PMS5003;23175;-33.706;151.094;2023-08-12T06:24:16;3;3;
37290;PMS5003;23175;-33.706;151.094;2023-08-12T06:26:47;9;6;
37290;PMS5003;23175;-33.706;151.094;2023-08-12T06:29:17;10;7;
37290;PMS5003;23175;-33.706;151.094;2023-08-12T06:31:47;5;5;
37290;PMS5003;23175;-33.706;151.094;2023-08-12T06:34:18;4;4;
37290;PMS5003;23175;-33.706;151.094;2023-08-12T06:36:50;8;6;
37290;PMS5003;23175;-33.706;151.094;2023-08-12T06:39:20;6;5;
37290;PMS5003;23175;-33.706;151.094;2023-08-12T06:41:50;7;6;
37290;PMS5003;23175;-33.706;151.094;2023-08-12T06:44:20;6;6;
37290;PMS5003;23175;-33.706;151.094;2023-08-12T06:46:50;7;5;
37290;PMS5003;23175;-33.706;151.094;2023-08-12T06:49:22;8;7;
37290;PMS5003;23175;-33.706;151.094;2023-08-12T06:51:52;5;5;
37290;PMS5003;23175;-33.706;151.094;2023-08-12T06:54:21;3;3;
37290;PMS5003;23175;-33.706;151.094;2023-08-12T06:56:51;4;4;
37290;PMS5003;23175;-33.706;151.094;2023-08-12T06:59:21;4;4;
37290;PMS5003;23175;-33.706;151.094;2023-08-12T07:01:56;4;3;
37290;PMS5003;23175;-33.706;151.094;2023-08-12T07:04:26;9;5;
37290;PMS5003;23175;-33.706;151.094;2023-08-12T07:06:56;8;8;
37290;PMS5003;23175;-33.706;151.094;2023-08-12T07:09:26;3;3;
37290;PMS5003;23175;-33.706;151.094;2023-08-12T07:12:01;8;5;
37290;PMS5003;23175;-33.706;151.094;2023-08-12T07:14:31;4;4;
37290;PMS5003;23175;-33.706;151.094;2023-08-12T07:17:01;6;5;
37290;PMS5003;23175;-33.706;151.094;2023-08-12T07:19:31;13;11;
37290;PMS5003;23175;-33.706;151.094;2023-08-12T07:22:02;8;8;
37290;PMS5003;23175;-33.706;151.094;2023-08-12T07:24:32;3;3;
37290;PMS5003;23175;-33.706;151.094;2023-08-12T07:27:02;7;6;
37290;PMS5003;23175;-33.706;151.094;2023-08-12T07:29:38;13;7;
37290;PMS5003;23175;-33.706;151.094;2023-08-12T07:32:08;11;8;
37290;PMS5003;23175;-33.706;151.094;2023-08-12T07:34:38;12;7;
37290;PMS5003;23175;-33.706;151.094;2023-08-12T07:37:07;7;5;
37290;PMS5003;23175;-33.706;151.094;2023-08-12T07:39:38;8;6;
37290;PMS5003;23175;-33.706;151.094;2023-08-12T07:42:07;3;3;
37290;PMS5003;23175;-33.706;151.094;2023-08-12T07:44:37;7;6;
37290;PMS5003;23175;-33.706;151.094;2023-08-12T07:47:07;5;5;
37290;PMS5003;23175;-33.706;151.094;2023-08-12T07:49:36;5;5;
37290;PMS5003;23175;-33.706;151.094;2023-08-12T07:52:06;7;5;
37290;PMS5003;23175;-33.706;151.094;2023-08-12T07:54:37;5;5;
37290;PMS5003;23175;-33.706;151.094;2023-08-12T07:57:06;5;5;
37290;PMS5003;23175;-33.706;151.094;2023-08-12T07:59:36;8;7;
37290;PMS5003;23175;-33.706;151.094;2023-08-12T08:02:06;10;7;
37290;PMS5003;23175;-33.706;151.094;2023-08-12T08:04:36;8;8;
37290;PMS5003;23175;-33.706;151.094;2023-08-12T08:07:05;8;7;
37290;PMS5003;23175;-33.706;151.094;2023-08-12T08:09:35;9;8;
37290;PMS5003;23175;-33.706;151.094;2023-08-12T08:12:05;6;6;
37290;PMS5003;23175;-33.706;151.094;2023-08-12T08:14:36;9;8;
37290;PMS5003;23175;-33.706;151.094;2023-08-12T08:17:06;6;6;
37290;PMS5003;23175;-33.706;151.094;2023-08-12T08:19:36;9;7;
37290;PMS5003;23175;-33.706;151.094;2023-08-12T08:22:05;9;8;
37290;PMS5003;23175;-33.706;151.094;2023-08-12T08:24:35;8;8;
37290;PMS5003;23175;-33.706;151.094;2023-08-12T08:27:05;15;11;
37290;PMS5003;23175;-33.706;151.094;2023-08-12T08:29:35;8;6;
37290;PMS5003;23175;-33.706;151.094;2023-08-12T08:32:05;8;6;
37290;PMS5003;23175;-33.706;151.094;2023-08-12T08:34:36;9;6;
37290;PMS5003;23175;-33.706;151.094;2023-08-12T08:37:05;10;8;
37290;PMS5003;23175;-33.706;151.094;2023-08-12T08:39:36;6;5;
37290;PMS5003;23175;-33.706;151.094;2023-08-12T08:42:05;7;7;
37290;PMS5003;23175;-33.706;151.094;2023-08-12T08:44:38;8;7;
37290;PMS5003;23175;-33.706;151.094;2023-08-12T08:47:10;8;8;
37290;PMS5003;23175;-33.706;151.094;2023-08-12T08:49:44;8;7;
37290;PMS5003;23175;-33.706;151.094;2023-08-12T08:52:14;9;9;
37290;PMS5003;23175;-33.706;151.094;2023-08-12T08:54:45;9;9;
37290;PMS5003;23175;-33.706;151.094;2023-08-12T08:57:16;6;6;
37290;PMS5003;23175;-33.706;151.094;2023-08-12T08:59:46;8;6;
37290;PMS5003;23175;-33.706;151.094;2023-08-12T09:02:17;12;10;
37290;PMS5003;23175;-33.706;151.094;2023-08-12T09:04:48;9;8;
37290;PMS5003;23175;-33.706;151.094;2023-08-12T09:07:18;11;11;
37290;PMS5003;23175;-33.706;151.094;2023-08-12T09:09:49;11;8;
37290;PMS5003;23175;-33.706;151.094;2023-08-12T09:12:22;8;8;
37290;PMS5003;23175;-33.706;151.094;2023-08-12T09:14:52;12;8;
37290;PMS5003;23175;-33.706;151.094;2023-08-12T09:17:22;12;11;
37290;PMS5003;23175;-33.706;151.094;2023-08-12T09:19:51;10;9;
37290;PMS5003;23175;-33.706;151.094;2023-08-12T09:22:21;16;14;
37290;PMS5003;23175;-33.706;151.094;2023-08-12T09:24:56;15;15;
37290;PMS5003;23175;-33.706;151.094;2023-08-12T09:27:26;55;51;
37290;PMS5003;23175;-33.706;151.094;2023-08-12T09:29:58;48;46;
37290;PMS5003;23175;-33.706;151.094;2023-08-12T09:32:30;74;72;
37290;PMS5003;23175;-33.706;151.094;2023-08-12T09:35:00;67;63;
37290;PMS5003;23175;-33.706;151.094;2023-08-12T09:37:30;49;48;
37290;PMS5003;23175;-33.706;151.094;2023-08-12T09:40:01;34;32;
37290;PMS5003;23175;-33.706;151.094;2023-08-12T09:42:36;25;24;
37290;PMS5003;23175;-33.706;151.094;2023-08-12T09:45:12;27;24;
37290;PMS5003;23175;-33.706;151.094;2023-08-12T09:47:42;28;27;
37290;PMS5003;23175;-33.706;151.094;2023-08-12T09:50:13;27;25;
37290;PMS5003;23175;-33.706;151.094;2023-08-12T09:52:43;25;22;
37290;PMS5003;23175;-33.706;151.094;2023-08-12T09:55:14;24;21;
37290;PMS5003;23175;-33.706;151.094;2023-08-12T09:57:47;16;16;
37290;PMS5003;23175;-33.706;151.094;2023-08-12T10:00:19;14;14;
37290;PMS5003;23175;-33.706;151.094;2023-08-12T10:02:51;24;24;
37290;PMS5003;23175;-33.706;151.094;2023-08-12T10:05:22;46;44;
37290;PMS5003;23175;-33.706;151.094;2023-08-12T10:07:55;42;36;
37290;PMS5003;23175;-33.706;151.094;2023-08-12T10:10:25;52;50;
37290;PMS5003;23175;-33.706;151.094;2023-08-12T10:12:56;42;41;
37290;PMS5003;23175;-33.706;151.094;2023-08-12T10:15:26;36;36;
37290;PMS5003;23175;-33.706;151.094;2023-08-12T10:17:57;32;32;
37290;PMS5003;23175;-33.706;151.094;2023-08-12T10:20:27;38;37;
37290;PMS5003;23175;-33.706;151.094;2023-08-12T10:22:57;20;17;
37290;PMS5003;23175;-33.706;151.094;2023-08-12T10:25:31;22;21;
37290;PMS5003;23175;-33.706;151.094;2023-08-12T10:28:01;39;39;
37290;PMS5003;23175;-33.706;151.094;2023-08-12T10:30:31;64;62;
37290;PMS5003;23175;-33.706;151.094;2023-08-12T10:33:04;106;101;
37290;PMS5003;23175;-33.706;151.094;2023-08-12T10:35:41;91;89;
37290;PMS5003;23175;-33.706;151.094;2023-08-12T10:38:14;90;86;
37290;PMS5003;23175;-33.706;151.094;2023-08-12T10:40:46;86;84;
37290;PMS5003;23175;-33.706;151.094;2023-08-12T10:43:18;85;81;
37290;PMS5003;23175;-33.706;151.094;2023-08-12T10:45:50;58;57;
37290;PMS5003;23175;-33.706;151.094;2023-08-12T10:48:22;47;43;
37290;PMS5003;23175;-33.706;151.094;2023-08-12T10:50:53;45;41;
37290;PMS5003;23175;-33.706;151.094;2023-08-12T10:53:27;42;40;
37290;PMS5003;23175;-33.706;151.094;2023-08-12T10:56:02;45;42;
37290;PMS5003;23175;-33.706;151.094;2023-08-12T10:58:34;96;92;
37290;PMS5003;23175;-33.706;151.094;2023-08-12T11:01:16;127;127;
37290;PMS5003;23175;-33.706;151.094;2023-08-12T11:03:47;96;94;
37290;PMS5003;23175;-33.706;151.094;2023-08-12T11:06:18;82;82;
37290;PMS5003;23175;-33.706;151.094;2023-08-12T11:08:52;63;62;
37290;PMS5003;23175;-33.706;151.094;2023-08-12T11:11:24;60;57;
37290;PMS5003;23175;-33.706;151.094;2023-08-12T11:13:54;40;37;
37290;PMS5003;23175;-33.706;151.094;2023-08-12T11:16:32;38;38;
37290;PMS5003;23175;-33.706;151.094;2023-08-12T11:19:04;31;29;
37290;PMS5003;23175;-33.706;151.094;2023-08-12T11:21:36;28;27;
37290;PMS5003;23175;-33.706;151.094;2023-08-12T11:24:07;49;47;
37290;PMS5003;23175;-33.706;151.094;2023-08-12T11:26:37;41;41;
37290;PMS5003;23175;-33.706;151.094;2023-08-12T11:29:10;30;30;
37290;PMS5003;23175;-33.706;151.094;2023-08-12T11:31:40;30;30;
37290;PMS5003;23175;-33.706;151.094;2023-08-12T11:34:09;30;29;
37290;PMS5003;23175;-33.706;151.094;2023-08-12T11:36:40;25;24;
37290;PMS5003;23175;-33.706;151.094;2023-08-12T11:39:10;35;32;
37290;PMS5003;23175;-33.706;151.094;2023-08-12T11:41:41;32;30;
37290;PMS5003;23175;-33.706;151.094;2023-08-12T11:44:12;34;30;
37290;PMS5003;23175;-33.706;151.094;2023-08-12T11:46:49;37;36;
37290;PMS5003;23175;-33.706;151.094;2023-08-12T11:49:18;103;98;
37290;PMS5003;23175;-33.706;151.094;2023-08-12T11:51:49;131;121;
37290;PMS5003;23175;-33.706;151.094;2023-08-12T11:54:21;130;119;
37290;PMS5003;23175;-33.706;151.094;2023-08-12T11:56:52;97;92;
37290;PMS5003;23175;-33.706;151.094;2023-08-12T11:59:22;85;85;
37290;PMS5003;23175;-33.706;151.094;2023-08-12T12:01:54;61;60;
37290;PMS5003;23175;-33.706;151.094;2023-08-12T12:04:24;69;65;
37290;PMS5003;23175;-33.706;151.094;2023-08-12T12:06:54;78;75;
37290;PMS5003;23175;-33.706;151.094;2023-08-12T12:09:23;56;52;
37290;PMS5003;23175;-33.706;151.094;2023-08-12T12:11:53;63;60;
37290;PMS5003;23175;-33.706;151.094;2023-08-12T12:14:24;65;64;
37290;PMS5003;23175;-33.706;151.094;2023-08-12T12:16:54;62;59;
37290;PMS5003;23175;-33.706;151.094;2023-08-12T12:19:24;63;59;
37290;PMS5003;23175;-33.706;151.094;2023-08-12T12:21:54;61;59;
37290;PMS5003;23175;-33.706;151.094;2023-08-12T12:24:28;66;63;
37290;PMS5003;23175;-33.706;151.094;2023-08-12T12:26:58;56;53;
37290;PMS5003;23175;-33.706;151.094;2023-08-12T12:29:28;39;38;
37290;PMS5003;23175;-33.706;151.094;2023-08-12T12:31:58;77;75;
37290;PMS5003;23175;-33.706;151.094;2023-08-12T12:34:29;68;66;
37290;PMS5003;23175;-33.706;151.094;2023-08-12T12:36:59;49;45;
37290;PMS5003;23175;-33.706;151.094;2023-08-12T12:39:29;38;37;
37290;PMS5003;23175;-33.706;151.094;2023-08-12T12:41:59;42;39;
37290;PMS5003;23175;-33.706;151.094;2023-08-12T12:44:29;31;29;
37290;PMS5003;23175;-33.706;151.094;2023-08-12T12:46:59;34;34;
37290;PMS5003;23175;-33.706;151.094;2023-08-12T12:49:30;29;24;
37290;PMS5003;23175;-33.706;151.094;2023-08-12T12:52:00;28;26;
37290;PMS5003;23175;-33.706;151.094;2023-08-12T12:54:31;26;24;
37290;PMS5003;23175;-33.706;151.094;2023-08-12T12:57:02;29;28;
37290;PMS5003;23175;-33.706;151.094;2023-08-12T12:59:32;34;33;
37290;PMS5003;23175;-33.706;151.094;2023-08-12T13:02:01;38;34;
37290;PMS5003;23175;-33.706;151.094;2023-08-12T13:04:31;31;28;
37290;PMS5003;23175;-33.706;151.094;2023-08-12T13:07:01;23;23;
37290;PMS5003;23175;-33.706;151.094;2023-08-12T13:09:32;32;32;
37290;PMS5003;23175;-33.706;151.094;2023-08-12T13:12:02;32;31;
37290;PMS5003;23175;-33.706;151.094;2023-08-12T13:14:32;36;31;
37290;PMS5003;23175;-33.706;151.094;2023-08-12T13:17:02;29;29;
37290;PMS5003;23175;-33.706;151.094;2023-08-12T13:19:32;29;29;
37290;PMS5003;23175;-33.706;151.094;2023-08-12T13:22:02;30;30;
37290;PMS5003;23175;-33.706;151.094;2023-08-12T13:24:32;34;32;
37290;PMS5003;23175;-33.706;151.094;2023-08-12T13:27:02;33;32;
37290;PMS5003;23175;-33.706;151.094;2023-08-12T13:29:32;28;26;
37290;PMS5003;23175;-33.706;151.094;2023-08-12T13:32:02;34;29;
37290;PMS5003;23175;-33.706;151.094;2023-08-12T13:34:32;37;32;
37290;PMS5003;23175;-33.706;151.094;2023-08-12T13:37:02;36;29;
37290;PMS5003;23175;-33.706;151.094;2023-08-12T13:39:32;32;32;
37290;PMS5003;23175;-33.706;151.094;2023-08-12T13:42:02;28;28;
37290;PMS5003;23175;-33.706;151.094;2023-08-12T13:44:32;29;29;
37290;PMS5003;23175;-33.706;151.094;2023-08-12T13:47:02;36;33;
37290;PMS5003;23175;-33.706;151.094;2023-08-12T13:49:32;35;35;
37290;PMS5003;23175;-33.706;151.094;2023-08-12T13:52:02;36;34;
37290;PMS5003;23175;-33.706;151.094;2023-08-12T13:54:33;36;33;
37290;PMS5003;23175;-33.706;151.094;2023-08-12T13:57:03;43;37;
37290;PMS5003;23175;-33.706;151.094;2023-08-12T13:59:33;31;30;
37290;PMS5003;23175;-33.706;151.094;2023-08-12T14:02:03;32;30;
37290;PMS5003;23175;-33.706;151.094;2023-08-12T14:04:34;40;37;
37290;PMS5003;23175;-33.706;151.094;2023-08-12T14:07:04;39;34;
37290;PMS5003;23175;-33.706;151.094;2023-08-12T14:09:34;40;39;
37290;PMS5003;23175;-33.706;151.094;2023-08-12T14:12:04;35;33;
37290;PMS5003;23175;-33.706;151.094;2023-08-12T14:14:34;46;44;
37290;PMS5003;23175;-33.706;151.094;2023-08-12T14:17:05;49;45;
37290;PMS5003;23175;-33.706;151.094;2023-08-12T14:19:36;47;42;
37290;PMS5003;23175;-33.706;151.094;2023-08-12T14:22:06;50;46;
37290;PMS5003;23175;-33.706;151.094;2023-08-12T14:24:36;46;44;
37290;PMS5003;23175;-33.706;151.094;2023-08-12T14:27:07;50;49;
37290;PMS5003;23175;-33.706;151.094;2023-08-12T14:29:36;48;46;
37290;PMS5003;23175;-33.706;151.094;2023-08-12T14:32:07;49;46;
37290;PMS5003;23175;-33.706;151.094;2023-08-12T14:34:37;49;45;
37290;PMS5003;23175;-33.706;151.094;2023-08-12T14:37:07;53;52;
37290;PMS5003;23175;-33.706;151.094;2023-08-12T14:39:37;53;45;
37290;PMS5003;23175;-33.706;151.094;2023-08-12T14:42:08;46;42;
37290;PMS5003;23175;-33.706;151.094;2023-08-12T14:44:38;48;45;
37290;PMS5003;23175;-33.706;151.094;2023-08-12T14:47:08;53;52;
37290;PMS5003;23175;-33.706;151.094;2023-08-12T14:49:38;56;53;
37290;PMS5003;23175;-33.706;151.094;2023-08-12T14:52:15;59;59;
37290;PMS5003;23175;-33.706;151.094;2023-08-12T14:54:46;57;55;
37290;PMS5003;23175;-33.706;151.094;2023-08-12T14:57:16;58;52;
37290;PMS5003;23175;-33.706;151.094;2023-08-12T14:59:47;59;56;
37290;PMS5003;23175;-33.706;151.094;2023-08-12T15:02:17;60;59;
37290;PMS5003;23175;-33.706;151.094;2023-08-12T15:04:48;64;58;
37290;PMS5003;23175;-33.706;151.094;2023-08-12T15:07:19;60;57;
37290;PMS5003;23175;-33.706;151.094;2023-08-12T15:09:49;74;66;
37290;PMS5003;23175;-33.706;151.094;2023-08-12T15:12:20;65;57;
37290;PMS5003;23175;-33.706;151.094;2023-08-12T15:14:50;74;63;
37290;PMS5003;23175;-33.706;151.094;2023-08-12T15:17:21;80;75;
37290;PMS5003;23175;-33.706;151.094;2023-08-12T15:19:52;81;75;
37290;PMS5003;23175;-33.706;151.094;2023-08-12T15:22:22;80;72;
37290;PMS5003;23175;-33.706;151.094;2023-08-12T15:24:52;63;63;
37290;PMS5003;23175;-33.706;151.094;2023-08-12T15:27:22;77;72;
37290;PMS5003;23175;-33.706;151.094;2023-08-12T15:29:52;74;68;
37290;PMS5003;23175;-33.706;151.094;2023-08-12T15:32:23;72;71;
37290;PMS5003;23175;-33.706;151.094;2023-08-12T15:34:53;75;68;
37290;PMS5003;23175;-33.706;151.094;2023-08-12T15:37:23;70;66;
37290;PMS5003;23175;-33.706;151.094;2023-08-12T15:39:52;63;61;
37290;PMS5003;23175;-33.706;151.094;2023-08-12T15:42:22;67;64;
37290;PMS5003;23175;-33.706;151.094;2023-08-12T15:44:52;68;65;
37290;PMS5003;23175;-33.706;151.094;2023-08-12T15:47:22;77;71;
37290;PMS5003;23175;-33.706;151.094;2023-08-12T15:49:52;71;68;
37290;PMS5003;23175;-33.706;151.094;2023-08-12T15:52:22;80;76;
37290;PMS5003;23175;-33.706;151.094;2023-08-12T15:54:54;92;86;
37290;PMS5003;23175;-33.706;151.094;2023-08-12T15:57:24;83;79;
37290;PMS5003;23175;-33.706;151.094;2023-08-12T15:59:54;85;84;
37290;PMS5003;23175;-33.706;151.094;2023-08-12T16:02:24;86;82;